1865 Hurricane NOT_NAMED (1865252N15319)


IBTrACS version v04r00. Visit IBTrACS website for data access.
Please direct all questions to the IBTrACS Q and A forum

Storm track - Intensity - Wind Radii - Intensity Data - Source Data - All data

Summary Information

Storm ID 1865252N15319
Start Sep 8 12Z
Max Intensity 65 kt (Sep 17 18Z)
End Sep 18 18Z
ATCF IDs
Track status Best track data.

Storm track plot

Map of storm track

Intensity plots

Map of storm track

Radial wind information

No radial wind information for this storm


Position and Intensity Table

BASIN ISO_TIME_________ NATURE LAT LON MLC WIND
degrees north degrees east kts
NA 1865-09-08 12:00:00 TS 15.00 -41.00 30
NA 15:00:00 TS 15.16 -41.50 30
NA 18:00:00 TS 15.30 -42.00 30
NA 21:00:00 TS 15.40 -42.50 32
NA 1865-09-09 00:00:00 TS 15.50 -43.00 35
NA 03:00:00 TS 15.65 -43.50 35
NA 06:00:00 TS 15.80 -44.00 35
NA 09:00:00 TS 15.88 -44.50 35
NA 12:00:00 TS 16.00 -45.00 35
NA 15:00:00 TS 16.23 -45.50 35
NA 18:00:00 TS 16.50 -46.00 35
NA 21:00:00 TS 16.75 -46.50 35
NA 1865-09-10 00:00:00 TS 17.00 -47.00 35
NA 03:00:00 TS 17.25 -47.50 35
NA 06:00:00 TS 17.50 -48.00 35
NA 09:00:00 TS 17.74 -48.52 35
NA 12:00:00 TS 18.00 -49.00 35
NA 15:00:00 TS 18.30 -49.41 35
NA 18:00:00 TS 18.60 -49.80 35
NA 21:00:00 TS 18.85 -50.25 35
NA 1865-09-11 00:00:00 TS 19.10 -50.70 35
NA 03:00:00 TS 19.40 -51.11 35
NA 06:00:00 TS 19.70 -51.50 35
NA 09:00:00 TS 19.93 -51.92 35
NA 12:00:00 TS 20.20 -52.30 35
NA 15:00:00 TS 20.61 -52.62 35
NA 18:00:00 TS 21.10 -52.90 35
NA 21:00:00 TS 21.60 -53.20 37
NA 1865-09-12 00:00:00 TS 22.10 -53.50 40
NA 03:00:00 TS 22.55 -53.80 40
NA 06:00:00 TS 23.00 -54.10 40
NA 09:00:00 TS 23.50 -54.44 40
NA 12:00:00 TS 24.00 -54.70 40
NA 15:00:00 TS 24.46 -54.75 40
NA 18:00:00 TS 24.90 -54.70 40
NA 21:00:00 TS 25.35 -54.72 40
NA 1865-09-13 00:00:00 TS 25.80 -54.70 40
NA 03:00:00 TS 26.24 -54.57 40
NA 06:00:00 TS 26.70 -54.40 40
NA 09:00:00 TS 27.21 -54.33 42
NA 12:00:00 TS 27.70 -54.20 45
NA 15:00:00 TS 28.12 -53.88 45
NA 18:00:00 TS 28.50 -53.50 45
NA 21:00:00 TS 28.90 -53.20 45
NA 1865-09-14 00:00:00 TS 29.30 -52.90 45
NA 03:00:00 TS 29.71 -52.56 45
NA 06:00:00 TS 30.10 -52.20 45
NA 09:00:00 TS 30.48 -51.89 45
NA 12:00:00 TS 30.80 -51.50 45
NA 15:00:00 TS 31.02 -50.93 45
NA 18:00:00 TS 31.20 -50.30 45
NA 21:00:00 TS 31.40 -49.74 45
NA 1865-09-15 00:00:00 TS 31.60 -49.20 45
NA 03:00:00 TS 31.81 -48.65 47
NA 06:00:00 TS 32.00 -48.10 50
NA 09:00:00 TS 32.16 -47.57 50
NA 12:00:00 TS 32.30 -47.00 50
NA 15:00:00 TS 32.45 -46.32 50
NA 18:00:00 TS 32.60 -45.60 50
NA 21:00:00 TS 32.75 -44.90 50
NA 1865-09-16 00:00:00 TS 32.90 -44.20 50
NA 03:00:00 TS 33.05 -43.49 52
NA 06:00:00 TS 33.20 -42.80 55
NA 09:00:00 TS 33.31 -42.09 55
NA 12:00:00 TS 33.50 -41.50 55
NA 15:00:00 TS 33.90 -41.15 57
NA 18:00:00 TS 34.40 -40.90 60
NA 21:00:00 TS 34.90 -40.60 60
NA 1865-09-17 00:00:00 TS 35.40 -40.30 60
NA 03:00:00 TS 35.85 -39.99 60
NA 06:00:00 TS 36.30 -39.70 60
NA 09:00:00 TS 36.60 -39.54 60
NA 12:00:00 TS 37.30 -39.20 60
NA 15:00:00 TS 38.91 -38.39 62
NA 18:00:00 TS 40.80 -37.30 65
NA 21:00:00 TS 42.22 -36.25 62
NA 1865-09-18 00:00:00 ET 43.70 -35.00 60
NA 03:00:00 ET 45.58 -33.33 60
NA 06:00:00 ET 47.60 -31.60 60
NA 09:00:00 ET 49.43 -30.24 60
NA 12:00:00 ET 51.50 -29.00 60
NA 15:00:00 ET 54.10 -27.62 60
NA 18:00:00 ET 57.00 -26.00 60

Source Information

Agency Information
USA
TOKYO
CMA
HKO
NEWDELHI
REUNION
BOM
NADI
WELLINGTON
DS824
TD9636
TD9635
NEUMANN
MLC

All available IBTrACS Data

SEASON BASIN SUBBASIN ISO_TIME_________ NATURE LAT LON DIST2LAND LANDFALL IFLAG USA SSHS MLC LAT MLC LON MLC CLASS MLC WIND STORM SPEED STORM DIR
Year degrees north degrees east km km 1 degrees north degrees east kts kts degrees
1865 NA NA 1865-09-08 12:00:00 TS 15.00 -41.00 1645 1624 _____________O -1 15.00 -41.00 TD 30 10 289
1865 NA NA 15:00:00 TS 15.16 -41.50 1625 1598 _____________P -1 15.16 -41.50 TD 30 10 287
1865 NA NA 18:00:00 TS 15.30 -42.00 1598 1572 _____________O -1 15.30 -42.00 TD 30 10 284
1865 NA NA 21:00:00 TS 15.40 -42.50 1572 1548 _____________P -1 15.40 -42.50 TD 32 10 282
1865 NA NA 1865-09-09 00:00:00 TS 15.50 -43.00 1548 1526 _____________O -1 15.50 -43.00 TS 35 10 285
1865 NA NA 03:00:00 TS 15.65 -43.50 1526 1513 _____________P -1 15.65 -43.50 TS 35 10 287
1865 NA NA 06:00:00 TS 15.80 -44.00 1513 1489 _____________O -1 15.80 -44.00 TS 35 10 284
1865 NA NA 09:00:00 TS 15.88 -44.50 1489 1466 _____________P -1 15.88 -44.50 TS 35 10 282
1865 NA NA 12:00:00 TS 16.00 -45.00 1466 1455 _____________O -1 16.00 -45.00 TS 35 10 290
1865 NA NA 15:00:00 TS 16.23 -45.50 1455 1451 _____________P -1 16.23 -45.50 TS 35 11 298
1865 NA NA 18:00:00 TS 16.50 -46.00 1456 1449 _____________O -1 16.50 -46.00 TS 35 11 299
1865 NA NA 21:00:00 TS 16.75 -46.50 1449 1449 _____________P -1 16.75 -46.50 TS 35 11 298
1865 NA NA 1865-09-10 00:00:00 TS 17.00 -47.00 1454 1450 _____________O -1 17.00 -47.00 TS 35 11 298
1865 NA NA 03:00:00 TS 17.25 -47.50 1452 1452 _____________P -1 17.25 -47.50 TS 35 11 298
1865 NA NA 06:00:00 TS 17.50 -48.00 1462 1458 _____________O -1 17.50 -48.00 TS 35 11 297
1865 NA NA 09:00:00 TS 17.74 -48.52 1459 1459 _____________P -1 17.74 -48.52 TS 35 11 298
1865 NA NA 12:00:00 TS 18.00 -49.00 1467 1463 _____________O -1 18.00 -49.00 TS 35 10 303
1865 NA NA 15:00:00 TS 18.30 -49.41 1483 1479 _____________P -1 18.30 -49.41 TS 35 10 308
1865 NA NA 18:00:00 TS 18.60 -49.80 1494 1472 _____________O -1 18.60 -49.80 TS 35 10 305
1865 NA NA 21:00:00 TS 18.85 -50.25 1464 1451 _____________P -1 18.85 -50.25 TS 35 10 300
1865 NA NA 1865-09-11 00:00:00 TS 19.10 -50.70 1451 1441 _____________O -1 19.10 -50.70 TS 35 10 304
1865 NA NA 03:00:00 TS 19.40 -51.11 1441 1432 _____________P -1 19.40 -51.11 TS 35 10 308
1865 NA NA 06:00:00 TS 19.70 -51.50 1432 1417 _____________O -1 19.70 -51.50 TS 35 9 305
1865 NA NA 09:00:00 TS 19.93 -51.92 1418 1409 _____________P -1 19.93 -51.92 TS 35 9 304
1865 NA NA 12:00:00 TS 20.20 -52.30 1409 1382 _____________O -1 20.20 -52.30 TS 35 10 316
1865 NA NA 15:00:00 TS 20.61 -52.62 1384 1360 _____________P -1 20.61 -52.62 TS 35 11 328
1865 NA NA 18:00:00 TS 21.10 -52.90 1362 1341 _____________O -1 21.10 -52.90 TS 35 11 331
1865 NA NA 21:00:00 TS 21.60 -53.20 1343 1324 _____________P -1 21.60 -53.20 TS 37 12 331
1865 NA NA 1865-09-12 00:00:00 TS 22.10 -53.50 1327 1311 _____________O -1 22.10 -53.50 TS 40 11 330
1865 NA NA 03:00:00 TS 22.55 -53.80 1311 1297 _____________P -1 22.55 -53.80 TS 40 11 328
1865 NA NA 06:00:00 TS 23.00 -54.10 1301 1289 _____________O -1 23.00 -54.10 TS 40 11 328
1865 NA NA 09:00:00 TS 23.50 -54.44 1294 1285 _____________P -1 23.50 -54.44 TS 40 11 331
1865 NA NA 12:00:00 TS 24.00 -54.70 1290 1290 _____________O -1 24.00 -54.70 TS 40 10 344
1865 NA NA 15:00:00 TS 24.46 -54.75 1317 1317 _____________P -1 24.46 -54.75 TS 40 9 0
1865 NA NA 18:00:00 TS 24.90 -54.70 1339 1339 _____________O -1 24.90 -54.70 TS 40 9 1
1865 NA NA 21:00:00 TS 25.35 -54.72 1362 1362 _____________P -1 25.35 -54.72 TS 40 9 0
1865 NA NA 1865-09-13 00:00:00 TS 25.80 -54.70 1393 1393 _____________O -1 25.80 -54.70 TS 40 9 9
1865 NA NA 03:00:00 TS 26.24 -54.57 1427 1427 _____________P -1 26.24 -54.57 TS 40 9 17
1865 NA NA 06:00:00 TS 26.70 -54.40 1476 1476 _____________O -1 26.70 -54.40 TS 40 10 12
1865 NA NA 09:00:00 TS 27.21 -54.33 1517 1517 _____________P -1 27.21 -54.33 TS 42 10 10
1865 NA NA 12:00:00 TS 27.70 -54.20 1560 1560 _____________O -1 27.70 -54.20 TS 45 10 24
1865 NA NA 15:00:00 TS 28.12 -53.88 1611 1611 _____________P -1 28.12 -53.88 TS 45 10 38
1865 NA NA 18:00:00 TS 28.50 -53.50 1670 1670 _____________O -1 28.50 -53.50 TS 45 10 37
1865 NA NA 21:00:00 TS 28.90 -53.20 1721 1721 _____________P -1 28.90 -53.20 TS 45 10 33
1865 NA NA 1865-09-14 00:00:00 TS 29.30 -52.90 1772 1772 _____________O -1 29.30 -52.90 TS 45 10 35
1865 NA NA 03:00:00 TS 29.71 -52.56 1823 1823 _____________P -1 29.71 -52.56 TS 45 10 37
1865 NA NA 06:00:00 TS 30.10 -52.20 1839 1795 _____________O -1 30.10 -52.20 TS 45 10 37
1865 NA NA 09:00:00 TS 30.48 -51.89 1795 1764 _____________P -1 30.48 -51.89 TS 45 9 41
1865 NA NA 12:00:00 TS 30.80 -51.50 1765 1745 _____________O -1 30.80 -51.50 TS 45 10 57
1865 NA NA 15:00:00 TS 31.02 -50.93 1747 1729 _____________P -1 31.02 -50.93 TS 45 11 69
1865 NA NA 18:00:00 TS 31.20 -50.30 1732 1715 _____________O -1 31.20 -50.30 TS 45 11 70
1865 NA NA 21:00:00 TS 31.40 -49.74 1718 1702 _____________P -1 31.40 -49.74 TS 45 10 67
1865 NA NA 1865-09-15 00:00:00 TS 31.60 -49.20 1704 1689 _____________O -1 31.60 -49.20 TS 45 10 66
1865 NA NA 03:00:00 TS 31.81 -48.65 1693 1679 _____________P -1 31.81 -48.65 TS 47 10 67
1865 NA NA 06:00:00 TS 32.00 -48.10 1682 1675 _____________O -1 32.00 -48.10 TS 50 10 69
1865 NA NA 09:00:00 TS 32.16 -47.57 1671 1671 _____________P -1 32.16 -47.57 TS 50 10 72
1865 NA NA 12:00:00 TS 32.30 -47.00 1676 1674 _____________O -1 32.30 -47.00 TS 50 11 74
1865 NA NA 15:00:00 TS 32.45 -46.32 1685 1674 _____________P -1 32.45 -46.32 TS 50 12 76
1865 NA NA 18:00:00 TS 32.60 -45.60 1686 1685 _____________O -1 32.60 -45.60 TS 50 12 76
1865 NA NA 21:00:00 TS 32.75 -44.90 1699 1688 _____________P -1 32.75 -44.90 TS 50 12 76
1865 NA NA 1865-09-16 00:00:00 TS 32.90 -44.20 1704 1704 _____________O -1 32.90 -44.20 TS 50 12 76
1865 NA NA 03:00:00 TS 33.05 -43.49 1721 1711 _____________P -1 33.05 -43.49 TS 52 12 76
1865 NA NA 06:00:00 TS 33.20 -42.80 1730 1730 _____________O -1 33.20 -42.80 TS 55 12 78
1865 NA NA 09:00:00 TS 33.31 -42.09 1751 1750 _____________P -1 33.31 -42.09 TS 55 11 75
1865 NA NA 12:00:00 TS 33.50 -41.50 1759 1735 _____________O -1 33.50 -41.50 TS 55 10 53
1865 NA NA 15:00:00 TS 33.90 -41.15 1740 1703 _____________P -1 33.90 -41.15 TS 57 10 29
1865 NA NA 18:00:00 TS 34.40 -40.90 1703 1673 _____________O -1 34.40 -40.90 TS 60 11 24
1865 NA NA 21:00:00 TS 34.90 -40.60 1673 1644 _____________P -1 34.90 -40.60 TS 60 11 26
1865 NA NA 1865-09-17 00:00:00 TS 35.40 -40.30 1644 1619 _____________O -1 35.40 -40.30 TS 60 11 28
1865 NA NA 03:00:00 TS 35.85 -39.99 1625 1598 _____________P -1 35.85 -39.99 TS 60 10 28
1865 NA NA 06:00:00 TS 36.30 -39.70 1598 1579 _____________O -1 36.30 -39.70 TS 60 8 26
1865 NA NA 09:00:00 TS 36.60 -39.54 1585 1547 _____________P -1 36.60 -39.54 TS 60 11 22
1865 NA NA 12:00:00 TS 37.30 -39.20 1545 1479 _____________O -1 37.30 -39.20 TS 60 25 22
1865 NA NA 15:00:00 TS 38.91 -38.39 1471 1417 _____________P -1 38.91 -38.39 TS 62 38 23
1865 NA NA 18:00:00 TS 40.80 -37.30 1417 1403 _____________O -1 40.80 -37.30 HU 65 37 26
1865 NA NA 21:00:00 TS 42.22 -36.25 1412 1406 _____________P -1 42.22 -36.25 HU 62 34 30
1865 NA NA 1865-09-18 00:00:00 ET 43.70 -35.00 1423 1423 _____________O -1 43.70 -35.00 EX 60 40 32
1865 NA NA 03:00:00 ET 45.58 -33.33 1480 1480 _____________P -1 45.58 -33.33 EX 60 46 31
1865 NA NA 06:00:00 ET 47.60 -31.60 1564 1417 _____________O -1 47.60 -31.60 EX 60 44 28
1865 NA NA 09:00:00 ET 49.43 -30.24 1406 1272 _____________P -1 49.43 -30.24 EX 60 42 23
1865 NA NA 12:00:00 ET 51.50 -29.00 1263 1131 _____________O -1 51.50 -29.00 EX 60 49 19
1865 NA NA 15:00:00 ET 54.10 -27.62 1108 796 _____________P -1 54.10 -27.62 EX 60 58 18
1865 NA NA 18:00:00 ET 57.00 -26.00 773 _____________O -1 57.00 -26.00 EX 60 61 17